sensor_id;sensor_type;location;lat;lon;timestamp;P1;durP1;ratioP1;P2;durP2;ratioP2
5149;SDS011;2593;52.466;13.436;2022-09-17T00:00:45;15.33;;;4.03;;
5149;SDS011;2593;52.466;13.436;2022-09-17T00:03:12;13.17;;;4.30;;
5149;SDS011;2593;52.466;13.436;2022-09-17T00:05:38;11.10;;;2.80;;
5149;SDS011;2593;52.466;13.436;2022-09-17T00:08:04;11.60;;;3.90;;
5149;SDS011;2593;52.466;13.436;2022-09-17T00:10:31;12.30;;;5.57;;
5149;SDS011;2593;52.466;13.436;2022-09-17T00:13:01;7.03;;;4.70;;
5149;SDS011;2593;52.466;13.436;2022-09-17T00:15:27;12.87;;;2.87;;
5149;SDS011;2593;52.466;13.436;2022-09-17T00:17:53;12.20;;;3.43;;
5149;SDS011;2593;52.466;13.436;2022-09-17T00:20:21;44.90;;;15.37;;
5149;SDS011;2593;52.466;13.436;2022-09-17T00:22:47;43.47;;;15.73;;
5149;SDS011;2593;52.466;13.436;2022-09-17T00:25:13;21.67;;;7.80;;
5149;SDS011;2593;52.466;13.436;2022-09-17T00:27:38;17.70;;;4.03;;
5149;SDS011;2593;52.466;13.436;2022-09-17T00:30:04;13.00;;;3.27;;
5149;SDS011;2593;52.466;13.436;2022-09-17T00:32:30;12.17;;;2.67;;
5149;SDS011;2593;52.466;13.436;2022-09-17T00:34:56;9.43;;;3.40;;
5149;SDS011;2593;52.466;13.436;2022-09-17T00:37:21;9.43;;;2.77;;
5149;SDS011;2593;52.466;13.436;2022-09-17T00:39:47;7.33;;;2.10;;
5149;SDS011;2593;52.466;13.436;2022-09-17T00:42:13;4.73;;;2.33;;
5149;SDS011;2593;52.466;13.436;2022-09-17T00:47:18;10.30;;;1.97;;
5149;SDS011;2593;52.466;13.436;2022-09-17T00:50:11;9.23;;;2.20;;
5149;SDS011;2593;52.466;13.436;2022-09-17T00:52:42;7.13;;;2.00;;
5149;SDS011;2593;52.466;13.436;2022-09-17T00:55:17;9.13;;;3.03;;
5149;SDS011;2593;52.466;13.436;2022-09-17T00:57:49;21.20;;;5.20;;
5149;SDS011;2593;52.466;13.436;2022-09-17T01:00:18;19.23;;;4.63;;
5149;SDS011;2593;52.466;13.436;2022-09-17T01:02:44;6.43;;;2.23;;
5149;SDS011;2593;52.466;13.436;2022-09-17T01:05:11;9.80;;;2.00;;
5149;SDS011;2593;52.466;13.436;2022-09-17T01:10:36;9.90;;;3.07;;
5149;SDS011;2593;52.466;13.436;2022-09-17T01:13:41;7.67;;;2.13;;
5149;SDS011;2593;52.466;13.436;2022-09-17T01:16:18;15.43;;;2.57;;
5149;SDS011;2593;52.466;13.436;2022-09-17T01:21:49;7.00;;;2.13;;
5149;SDS011;2593;52.466;13.436;2022-09-17T01:29:42;20.67;;;3.00;;
5149;SDS011;2593;52.466;13.436;2022-09-17T01:35:11;5.03;;;1.93;;
5149;SDS011;2593;52.466;13.436;2022-09-17T01:43:37;12.57;;;2.40;;
5149;SDS011;2593;52.466;13.436;2022-09-17T01:48:58;10.80;;;2.70;;
5149;SDS011;2593;52.466;13.436;2022-09-17T01:51:29;23.87;;;2.40;;
5149;SDS011;2593;52.466;13.436;2022-09-17T01:54:03;11.20;;;2.73;;
5149;SDS011;2593;52.466;13.436;2022-09-17T01:56:39;8.87;;;2.13;;
5149;SDS011;2593;52.466;13.436;2022-09-17T01:59:49;10.50;;;2.10;;
5149;SDS011;2593;52.466;13.436;2022-09-17T02:02:24;9.40;;;2.37;;
5149;SDS011;2593;52.466;13.436;2022-09-17T02:05:02;5.10;;;1.60;;
5149;SDS011;2593;52.466;13.436;2022-09-17T02:07:31;9.50;;;1.63;;
5149;SDS011;2593;52.466;13.436;2022-09-17T02:10:05;4.20;;;1.90;;
5149;SDS011;2593;52.466;13.436;2022-09-17T02:12:36;10.80;;;2.77;;
5149;SDS011;2593;52.466;13.436;2022-09-17T02:15:08;10.03;;;1.80;;
5149;SDS011;2593;52.466;13.436;2022-09-17T02:17:48;10.97;;;2.17;;
5149;SDS011;2593;52.466;13.436;2022-09-17T02:20:34;12.37;;;1.90;;
5149;SDS011;2593;52.466;13.436;2022-09-17T02:23:16;21.43;;;2.77;;
5149;SDS011;2593;52.466;13.436;2022-09-17T02:26:06;6.87;;;2.73;;
5149;SDS011;2593;52.466;13.436;2022-09-17T02:28:49;8.33;;;2.57;;
5149;SDS011;2593;52.466;13.436;2022-09-17T02:31:19;14.50;;;4.60;;
5149;SDS011;2593;52.466;13.436;2022-09-17T02:33:47;9.60;;;2.73;;
5149;SDS011;2593;52.466;13.436;2022-09-17T02:36:14;15.30;;;4.07;;
5149;SDS011;2593;52.466;13.436;2022-09-17T02:38:42;6.93;;;2.50;;
5149;SDS011;2593;52.466;13.436;2022-09-17T02:41:21;1.93;;;1.50;;
5149;SDS011;2593;52.466;13.436;2022-09-17T02:43:50;4.80;;;2.07;;
5149;SDS011;2593;52.466;13.436;2022-09-17T02:49:24;12.77;;;2.67;;
5149;SDS011;2593;52.466;13.436;2022-09-17T02:57:32;10.43;;;2.07;;
5149;SDS011;2593;52.466;13.436;2022-09-17T03:00:14;11.93;;;1.90;;
5149;SDS011;2593;52.466;13.436;2022-09-17T03:05:11;8.40;;;2.40;;
5149;SDS011;2593;52.466;13.436;2022-09-17T03:07:38;14.83;;;2.70;;
5149;SDS011;2593;52.466;13.436;2022-09-17T03:10:04;8.50;;;2.10;;
5149;SDS011;2593;52.466;13.436;2022-09-17T03:12:30;15.73;;;3.03;;
5149;SDS011;2593;52.466;13.436;2022-09-17T03:14:56;6.83;;;2.83;;
5149;SDS011;2593;52.466;13.436;2022-09-17T03:17:21;6.20;;;2.90;;
5149;SDS011;2593;52.466;13.436;2022-09-17T03:19:47;10.83;;;2.83;;
5149;SDS011;2593;52.466;13.436;2022-09-17T03:22:13;12.47;;;2.17;;
5149;SDS011;2593;52.466;13.436;2022-09-17T03:24:38;10.93;;;2.40;;
5149;SDS011;2593;52.466;13.436;2022-09-17T03:27:04;6.63;;;2.10;;
5149;SDS011;2593;52.466;13.436;2022-09-17T03:29:29;14.57;;;3.07;;
5149;SDS011;2593;52.466;13.436;2022-09-17T03:31:55;9.77;;;2.50;;
5149;SDS011;2593;52.466;13.436;2022-09-17T03:34:21;9.40;;;1.83;;
5149;SDS011;2593;52.466;13.436;2022-09-17T03:36:47;12.27;;;2.47;;
5149;SDS011;2593;52.466;13.436;2022-09-17T03:39:13;11.07;;;2.97;;
5149;SDS011;2593;52.466;13.436;2022-09-17T03:41:39;7.40;;;2.40;;
5149;SDS011;2593;52.466;13.436;2022-09-17T03:44:04;13.43;;;2.10;;
5149;SDS011;2593;52.466;13.436;2022-09-17T03:46:30;10.43;;;2.07;;
5149;SDS011;2593;52.466;13.436;2022-09-17T03:48:56;16.77;;;2.20;;
5149;SDS011;2593;52.466;13.436;2022-09-17T03:51:21;5.43;;;1.77;;
5149;SDS011;2593;52.466;13.436;2022-09-17T03:53:47;4.67;;;1.70;;
5149;SDS011;2593;52.466;13.436;2022-09-17T03:56:12;13.53;;;4.07;;
5149;SDS011;2593;52.466;13.436;2022-09-17T03:58:38;10.23;;;2.40;;
5149;SDS011;2593;52.466;13.436;2022-09-17T04:01:04;11.10;;;2.80;;
5149;SDS011;2593;52.466;13.436;2022-09-17T04:03:30;4.00;;;1.70;;
5149;SDS011;2593;52.466;13.436;2022-09-17T04:05:56;9.10;;;2.50;;
5149;SDS011;2593;52.466;13.436;2022-09-17T04:08:21;8.00;;;2.07;;
5149;SDS011;2593;52.466;13.436;2022-09-17T04:10:47;8.60;;;2.10;;
5149;SDS011;2593;52.466;13.436;2022-09-17T04:13:13;3.67;;;1.53;;
5149;SDS011;2593;52.466;13.436;2022-09-17T04:15:40;10.23;;;1.40;;
5149;SDS011;2593;52.466;13.436;2022-09-17T04:18:06;7.87;;;2.10;;
5149;SDS011;2593;52.466;13.436;2022-09-17T04:20:31;7.70;;;1.20;;
5149;SDS011;2593;52.466;13.436;2022-09-17T04:22:57;13.27;;;2.07;;
5149;SDS011;2593;52.466;13.436;2022-09-17T04:25:23;7.33;;;1.93;;
5149;SDS011;2593;52.466;13.436;2022-09-17T04:27:48;14.17;;;2.67;;
5149;SDS011;2593;52.466;13.436;2022-09-17T04:30:14;9.83;;;1.60;;
5149;SDS011;2593;52.466;13.436;2022-09-17T04:32:40;8.43;;;1.63;;
5149;SDS011;2593;52.466;13.436;2022-09-17T04:35:07;9.07;;;2.13;;
5149;SDS011;2593;52.466;13.436;2022-09-17T04:37:33;8.93;;;1.77;;
5149;SDS011;2593;52.466;13.436;2022-09-17T04:39:59;10.07;;;2.00;;
5149;SDS011;2593;52.466;13.436;2022-09-17T04:42:24;16.73;;;2.27;;
5149;SDS011;2593;52.466;13.436;2022-09-17T04:44:50;18.37;;;2.37;;
5149;SDS011;2593;52.466;13.436;2022-09-17T04:47:15;15.70;;;2.20;;
5149;SDS011;2593;52.466;13.436;2022-09-17T04:49:41;9.50;;;2.20;;
5149;SDS011;2593;52.466;13.436;2022-09-17T04:52:07;20.70;;;2.57;;
5149;SDS011;2593;52.466;13.436;2022-09-17T04:54:32;8.43;;;2.50;;
5149;SDS011;2593;52.466;13.436;2022-09-17T04:56:58;11.67;;;2.47;;
5149;SDS011;2593;52.466;13.436;2022-09-17T04:59:24;6.90;;;2.27;;
5149;SDS011;2593;52.466;13.436;2022-09-17T05:01:50;8.00;;;1.80;;
5149;SDS011;2593;52.466;13.436;2022-09-17T05:04:15;9.43;;;1.93;;
5149;SDS011;2593;52.466;13.436;2022-09-17T05:06:41;8.43;;;2.10;;
5149;SDS011;2593;52.466;13.436;2022-09-17T05:09:06;8.43;;;3.67;;
5149;SDS011;2593;52.466;13.436;2022-09-17T05:11:32;10.03;;;2.57;;
5149;SDS011;2593;52.466;13.436;2022-09-17T05:13:58;8.67;;;2.00;;
5149;SDS011;2593;52.466;13.436;2022-09-17T05:16:23;14.53;;;2.47;;
5149;SDS011;2593;52.466;13.436;2022-09-17T05:18:49;11.07;;;2.93;;
5149;SDS011;2593;52.466;13.436;2022-09-17T05:21:15;13.33;;;2.80;;
5149;SDS011;2593;52.466;13.436;2022-09-17T05:23:42;9.83;;;1.63;;
5149;SDS011;2593;52.466;13.436;2022-09-17T05:26:07;7.60;;;1.70;;
5149;SDS011;2593;52.466;13.436;2022-09-17T05:28:33;18.70;;;2.63;;
5149;SDS011;2593;52.466;13.436;2022-09-17T05:30:59;7.90;;;2.10;;
5149;SDS011;2593;52.466;13.436;2022-09-17T05:33:25;6.03;;;1.80;;
5149;SDS011;2593;52.466;13.436;2022-09-17T05:35:51;13.43;;;2.57;;
5149;SDS011;2593;52.466;13.436;2022-09-17T05:38:17;6.77;;;1.87;;
5149;SDS011;2593;52.466;13.436;2022-09-17T05:40:43;16.17;;;3.30;;
5149;SDS011;2593;52.466;13.436;2022-09-17T05:43:09;13.03;;;2.77;;
5149;SDS011;2593;52.466;13.436;2022-09-17T05:45:35;8.13;;;2.00;;
5149;SDS011;2593;52.466;13.436;2022-09-17T05:48:02;5.80;;;1.83;;
5149;SDS011;2593;52.466;13.436;2022-09-17T05:50:30;13.53;;;3.43;;
5149;SDS011;2593;52.466;13.436;2022-09-17T05:52:56;9.37;;;1.80;;
5149;SDS011;2593;52.466;13.436;2022-09-17T05:55:27;9.10;;;2.23;;
5149;SDS011;2593;52.466;13.436;2022-09-17T05:57:52;9.73;;;2.10;;
5149;SDS011;2593;52.466;13.436;2022-09-17T06:00:18;8.53;;;1.93;;
5149;SDS011;2593;52.466;13.436;2022-09-17T06:02:43;9.57;;;2.50;;
5149;SDS011;2593;52.466;13.436;2022-09-17T06:05:09;11.33;;;2.00;;
5149;SDS011;2593;52.466;13.436;2022-09-17T06:07:35;15.63;;;3.90;;
5149;SDS011;2593;52.466;13.436;2022-09-17T06:10:02;8.20;;;2.80;;
5149;SDS011;2593;52.466;13.436;2022-09-17T06:12:31;13.97;;;2.87;;
5149;SDS011;2593;52.466;13.436;2022-09-17T06:14:59;12.23;;;3.20;;
5149;SDS011;2593;52.466;13.436;2022-09-17T06:17:25;9.47;;;2.67;;
5149;SDS011;2593;52.466;13.436;2022-09-17T06:19:50;10.43;;;3.10;;
5149;SDS011;2593;52.466;13.436;2022-09-17T06:22:19;22.67;;;3.50;;
5149;SDS011;2593;52.466;13.436;2022-09-17T06:24:44;26.70;;;6.27;;
5149;SDS011;2593;52.466;13.436;2022-09-17T06:27:10;20.63;;;3.77;;
5149;SDS011;2593;52.466;13.436;2022-09-17T06:29:35;16.73;;;3.20;;
5149;SDS011;2593;52.466;13.436;2022-09-17T06:32:01;19.83;;;4.23;;
5149;SDS011;2593;52.466;13.436;2022-09-17T06:34:27;19.93;;;3.50;;
5149;SDS011;2593;52.466;13.436;2022-09-17T06:36:52;13.57;;;2.70;;
5149;SDS011;2593;52.466;13.436;2022-09-17T06:39:18;22.97;;;3.30;;
5149;SDS011;2593;52.466;13.436;2022-09-17T06:41:43;26.10;;;4.40;;
5149;SDS011;2593;52.466;13.436;2022-09-17T06:44:10;24.30;;;4.47;;
5149;SDS011;2593;52.466;13.436;2022-09-17T06:46:35;19.80;;;4.13;;
5149;SDS011;2593;52.466;13.436;2022-09-17T06:49:01;18.83;;;3.40;;
5149;SDS011;2593;52.466;13.436;2022-09-17T06:51:27;19.30;;;3.97;;
5149;SDS011;2593;52.466;13.436;2022-09-17T06:53:52;35.93;;;4.80;;
5149;SDS011;2593;52.466;13.436;2022-09-17T06:56:18;27.93;;;5.20;;
5149;SDS011;2593;52.466;13.436;2022-09-17T06:58:43;24.97;;;3.00;;
5149;SDS011;2593;52.466;13.436;2022-09-17T07:01:10;25.03;;;3.03;;
5149;SDS011;2593;52.466;13.436;2022-09-17T07:03:36;15.87;;;3.50;;
5149;SDS011;2593;52.466;13.436;2022-09-17T07:06:02;23.20;;;3.53;;
5149;SDS011;2593;52.466;13.436;2022-09-17T07:08:30;29.63;;;4.17;;
5149;SDS011;2593;52.466;13.436;2022-09-17T07:10:58;15.83;;;4.50;;
5149;SDS011;2593;52.466;13.436;2022-09-17T07:13:24;13.63;;;3.10;;
5149;SDS011;2593;52.466;13.436;2022-09-17T07:18:19;22.93;;;3.40;;
5149;SDS011;2593;52.466;13.436;2022-09-17T07:20:51;17.53;;;3.20;;
5149;SDS011;2593;52.466;13.436;2022-09-17T07:23:21;15.90;;;4.03;;
5149;SDS011;2593;52.466;13.436;2022-09-17T07:25:52;17.67;;;3.40;;
5149;SDS011;2593;52.466;13.436;2022-09-17T07:28:25;19.50;;;3.50;;
5149;SDS011;2593;52.466;13.436;2022-09-17T07:30:51;21.60;;;3.67;;
5149;SDS011;2593;52.466;13.436;2022-09-17T07:33:19;18.43;;;3.77;;
5149;SDS011;2593;52.466;13.436;2022-09-17T07:35:51;12.80;;;2.90;;
5149;SDS011;2593;52.466;13.436;2022-09-17T07:38:21;30.67;;;3.30;;
5149;SDS011;2593;52.466;13.436;2022-09-17T07:40:56;11.37;;;2.30;;
5149;SDS011;2593;52.466;13.436;2022-09-17T07:43:24;14.83;;;3.20;;
5149;SDS011;2593;52.466;13.436;2022-09-17T07:45:50;19.87;;;3.20;;
5149;SDS011;2593;52.466;13.436;2022-09-17T07:48:17;20.80;;;4.10;;
5149;SDS011;2593;52.466;13.436;2022-09-17T07:50:44;11.30;;;2.40;;
5149;SDS011;2593;52.466;13.436;2022-09-17T07:53:09;16.17;;;3.03;;
5149;SDS011;2593;52.466;13.436;2022-09-17T07:55:35;11.97;;;3.10;;
5149;SDS011;2593;52.466;13.436;2022-09-17T07:58:01;16.83;;;3.63;;
5149;SDS011;2593;52.466;13.436;2022-09-17T08:00:26;22.63;;;3.70;;
5149;SDS011;2593;52.466;13.436;2022-09-17T08:02:52;19.13;;;3.03;;
5149;SDS011;2593;52.466;13.436;2022-09-17T08:05:19;25.10;;;3.33;;
5149;SDS011;2593;52.466;13.436;2022-09-17T08:07:48;13.87;;;2.77;;
5149;SDS011;2593;52.466;13.436;2022-09-17T08:10:18;21.87;;;3.50;;
5149;SDS011;2593;52.466;13.436;2022-09-17T08:12:49;14.10;;;2.57;;
5149;SDS011;2593;52.466;13.436;2022-09-17T08:15:18;18.47;;;3.57;;
5149;SDS011;2593;52.466;13.436;2022-09-17T08:17:44;19.83;;;2.77;;
5149;SDS011;2593;52.466;13.436;2022-09-17T08:20:10;21.90;;;2.53;;
5149;SDS011;2593;52.466;13.436;2022-09-17T08:22:36;12.43;;;2.93;;
5149;SDS011;2593;52.466;13.436;2022-09-17T08:25:03;16.43;;;3.13;;
5149;SDS011;2593;52.466;13.436;2022-09-17T08:27:29;26.10;;;3.50;;
5149;SDS011;2593;52.466;13.436;2022-09-17T08:29:55;10.37;;;2.43;;
5149;SDS011;2593;52.466;13.436;2022-09-17T08:32:22;11.27;;;2.20;;
5149;SDS011;2593;52.466;13.436;2022-09-17T08:34:48;17.27;;;2.53;;
5149;SDS011;2593;52.466;13.436;2022-09-17T08:37:13;9.70;;;2.20;;
5149;SDS011;2593;52.466;13.436;2022-09-17T08:39:39;10.30;;;2.00;;
5149;SDS011;2593;52.466;13.436;2022-09-17T08:42:09;8.17;;;2.07;;
5149;SDS011;2593;52.466;13.436;2022-09-17T08:44:44;17.00;;;3.40;;
5149;SDS011;2593;52.466;13.436;2022-09-17T08:50:00;8.77;;;2.50;;
5149;SDS011;2593;52.466;13.436;2022-09-17T08:58:04;7.95;;;2.20;;
5149;SDS011;2593;52.466;13.436;2022-09-17T09:06:06;6.53;;;1.80;;
5149;SDS011;2593;52.466;13.436;2022-09-17T09:08:36;15.15;;;1.42;;
5149;SDS011;2593;52.466;13.436;2022-09-17T09:11:17;3.70;;;1.20;;
5149;SDS011;2593;52.466;13.436;2022-09-17T09:13:51;9.30;;;1.53;;
5149;SDS011;2593;52.466;13.436;2022-09-17T09:16:25;9.37;;;1.73;;
5149;SDS011;2593;52.466;13.436;2022-09-17T09:18:58;11.10;;;2.40;;
5149;SDS011;2593;52.466;13.436;2022-09-17T09:22:03;9.50;;;1.87;;
5149;SDS011;2593;52.466;13.436;2022-09-17T09:24:39;7.53;;;1.67;;
5149;SDS011;2593;52.466;13.436;2022-09-17T09:27:16;12.17;;;2.30;;
5149;SDS011;2593;52.466;13.436;2022-09-17T09:29:53;8.80;;;1.97;;
5149;SDS011;2593;52.466;13.436;2022-09-17T09:32:38;7.80;;;1.90;;
5149;SDS011;2593;52.466;13.436;2022-09-17T09:37:51;6.00;;;1.67;;
5149;SDS011;2593;52.466;13.436;2022-09-17T09:42:48;6.70;;;1.70;;
5149;SDS011;2593;52.466;13.436;2022-09-17T09:45:20;12.23;;;2.37;;
5149;SDS011;2593;52.466;13.436;2022-09-17T09:48:08;7.57;;;2.60;;
5149;SDS011;2593;52.466;13.436;2022-09-17T09:51:09;15.67;;;2.57;;
5149;SDS011;2593;52.466;13.436;2022-09-17T09:58:57;7.23;;;1.57;;
5149;SDS011;2593;52.466;13.436;2022-09-17T10:01:24;13.37;;;2.40;;
5149;SDS011;2593;52.466;13.436;2022-09-17T10:03:52;11.10;;;2.80;;
5149;SDS011;2593;52.466;13.436;2022-09-17T10:06:22;8.70;;;2.10;;
5149;SDS011;2593;52.466;13.436;2022-09-17T10:11:21;8.10;;;1.53;;
5149;SDS011;2593;52.466;13.436;2022-09-17T10:13:49;10.43;;;2.00;;
5149;SDS011;2593;52.466;13.436;2022-09-17T10:16:21;14.47;;;2.33;;
5149;SDS011;2593;52.466;13.436;2022-09-17T10:21:32;5.97;;;1.80;;
5149;SDS011;2593;52.466;13.436;2022-09-17T10:24:04;14.60;;;2.17;;
5149;SDS011;2593;52.466;13.436;2022-09-17T10:26:50;3.17;;;1.70;;
5149;SDS011;2593;52.466;13.436;2022-09-17T10:29:24;6.80;;;1.60;;
5149;SDS011;2593;52.466;13.436;2022-09-17T10:31:53;5.20;;;1.67;;
5149;SDS011;2593;52.466;13.436;2022-09-17T10:34:22;5.57;;;1.70;;
5149;SDS011;2593;52.466;13.436;2022-09-17T10:36:49;7.60;;;2.00;;
5149;SDS011;2593;52.466;13.436;2022-09-17T10:39:22;7.30;;;1.57;;
5149;SDS011;2593;52.466;13.436;2022-09-17T10:44:35;8.80;;;1.90;;
5149;SDS011;2593;52.466;13.436;2022-09-17T10:47:23;8.07;;;2.23;;
5149;SDS011;2593;52.466;13.436;2022-09-17T10:49:55;9.00;;;2.10;;
5149;SDS011;2593;52.466;13.436;2022-09-17T10:52:34;17.97;;;2.30;;
5149;SDS011;2593;52.466;13.436;2022-09-17T10:55:17;7.53;;;2.57;;
5149;SDS011;2593;52.466;13.436;2022-09-17T11:12:36;10.83;;;2.30;;
5149;SDS011;2593;52.466;13.436;2022-09-17T11:15:34;19.43;;;2.17;;
5149;SDS011;2593;52.466;13.436;2022-09-17T11:21:17;14.50;;;2.13;;
5149;SDS011;2593;52.466;13.436;2022-09-17T11:26:28;15.70;;;1.90;;
5149;SDS011;2593;52.466;13.436;2022-09-17T11:34:24;6.63;;;1.93;;
5149;SDS011;2593;52.466;13.436;2022-09-17T11:37:03;9.67;;;2.70;;
5149;SDS011;2593;52.466;13.436;2022-09-17T11:39:47;11.40;;;1.97;;
5149;SDS011;2593;52.466;13.436;2022-09-17T11:42:20;10.40;;;2.47;;
5149;SDS011;2593;52.466;13.436;2022-09-17T11:47:33;10.23;;;1.97;;
5149;SDS011;2593;52.466;13.436;2022-09-17T11:50:06;14.90;;;2.70;;
5149;SDS011;2593;52.466;13.436;2022-09-17T11:53:08;8.20;;;2.37;;
5149;SDS011;2593;52.466;13.436;2022-09-17T11:55:41;10.57;;;1.63;;
5149;SDS011;2593;52.466;13.436;2022-09-17T12:01:18;16.13;;;2.20;;
5149;SDS011;2593;52.466;13.436;2022-09-17T12:03:52;5.27;;;1.83;;
5149;SDS011;2593;52.466;13.436;2022-09-17T12:06:22;11.13;;;1.87;;
5149;SDS011;2593;52.466;13.436;2022-09-17T12:09:20;7.37;;;1.33;;
5149;SDS011;2593;52.466;13.436;2022-09-17T12:14:28;4.70;;;1.70;;
5149;SDS011;2593;52.466;13.436;2022-09-17T12:17:02;7.10;;;1.53;;
5149;SDS011;2593;52.466;13.436;2022-09-17T12:19:36;4.30;;;1.80;;
5149;SDS011;2593;52.466;13.436;2022-09-17T12:22:16;14.83;;;5.07;;
5149;SDS011;2593;52.466;13.436;2022-09-17T12:24:48;11.53;;;4.07;;
5149;SDS011;2593;52.466;13.436;2022-09-17T12:43:18;5.87;;;1.00;;
5149;SDS011;2593;52.466;13.436;2022-09-17T12:46:25;5.67;;;2.23;;
5149;SDS011;2593;52.466;13.436;2022-09-17T12:51:56;14.97;;;3.37;;
5149;SDS011;2593;52.466;13.436;2022-09-17T12:57:45;12.10;;;3.57;;
5149;SDS011;2593;52.466;13.436;2022-09-17T13:00:35;15.53;;;6.00;;
5149;SDS011;2593;52.466;13.436;2022-09-17T13:14:00;17.93;;;6.03;;
5149;SDS011;2593;52.466;13.436;2022-09-17T13:19:14;36.10;;;11.60;;
5149;SDS011;2593;52.466;13.436;2022-09-17T13:24:44;5.37;;;1.70;;
5149;SDS011;2593;52.466;13.436;2022-09-17T13:27:21;11.40;;;1.30;;
5149;SDS011;2593;52.466;13.436;2022-09-17T13:37:33;34.27;;;15.40;;
5149;SDS011;2593;52.466;13.436;2022-09-17T13:40:03;13.37;;;6.47;;
5149;SDS011;2593;52.466;13.436;2022-09-17T13:42:40;24.13;;;9.17;;
5149;SDS011;2593;52.466;13.436;2022-09-17T13:45:10;12.40;;;3.10;;
5149;SDS011;2593;52.466;13.436;2022-09-17T13:48:01;6.20;;;3.40;;
5149;SDS011;2593;52.466;13.436;2022-09-17T13:50:38;12.43;;;4.80;;
5149;SDS011;2593;52.466;13.436;2022-09-17T14:05:55;6.87;;;3.10;;
5149;SDS011;2593;52.466;13.436;2022-09-17T14:08:23;22.70;;;8.40;;
5149;SDS011;2593;52.466;13.436;2022-09-17T14:13:45;25.80;;;7.40;;
5149;SDS011;2593;52.466;13.436;2022-09-17T14:21:45;8.27;;;2.33;;
5149;SDS011;2593;52.466;13.436;2022-09-17T14:24:22;10.93;;;2.50;;
5149;SDS011;2593;52.466;13.436;2022-09-17T14:32:15;6.83;;;1.80;;
5149;SDS011;2593;52.466;13.436;2022-09-17T14:35:15;10.73;;;4.43;;
5149;SDS011;2593;52.466;13.436;2022-09-17T14:37:54;9.57;;;2.33;;
5149;SDS011;2593;52.466;13.436;2022-09-17T14:40:45;10.10;;;1.97;;
5149;SDS011;2593;52.466;13.436;2022-09-17T14:43:17;8.00;;;1.20;;
5149;SDS011;2593;52.466;13.436;2022-09-17T14:45:47;2.70;;;1.10;;
5149;SDS011;2593;52.466;13.436;2022-09-17T14:50:51;7.00;;;1.63;;
5149;SDS011;2593;52.466;13.436;2022-09-17T14:53:18;7.00;;;2.97;;
5149;SDS011;2593;52.466;13.436;2022-09-17T14:55:46;12.37;;;3.00;;
5149;SDS011;2593;52.466;13.436;2022-09-17T14:58:24;12.07;;;4.20;;
5149;SDS011;2593;52.466;13.436;2022-09-17T15:00:55;8.40;;;2.13;;
5149;SDS011;2593;52.466;13.436;2022-09-17T15:03:21;7.80;;;1.10;;
5149;SDS011;2593;52.466;13.436;2022-09-17T15:05:48;4.03;;;1.80;;
5149;SDS011;2593;52.466;13.436;2022-09-17T15:08:18;11.93;;;2.70;;
5149;SDS011;2593;52.466;13.436;2022-09-17T15:10:47;2.47;;;1.37;;
5149;SDS011;2593;52.466;13.436;2022-09-17T15:13:24;2.77;;;1.37;;
5149;SDS011;2593;52.466;13.436;2022-09-17T15:15:57;2.27;;;0.90;;
5149;SDS011;2593;52.466;13.436;2022-09-17T15:18:36;2.97;;;0.70;;
5149;SDS011;2593;52.466;13.436;2022-09-17T15:21:16;5.80;;;1.90;;
5149;SDS011;2593;52.466;13.436;2022-09-17T15:23:45;9.13;;;4.47;;
5149;SDS011;2593;52.466;13.436;2022-09-17T15:26:12;5.50;;;2.80;;
5149;SDS011;2593;52.466;13.436;2022-09-17T15:28:41;5.53;;;1.60;;
5149;SDS011;2593;52.466;13.436;2022-09-17T15:31:13;5.00;;;0.90;;
5149;SDS011;2593;52.466;13.436;2022-09-17T15:33:42;4.97;;;1.47;;
5149;SDS011;2593;52.466;13.436;2022-09-17T15:36:13;1.80;;;1.00;;
5149;SDS011;2593;52.466;13.436;2022-09-17T15:38:47;2.60;;;2.07;;
5149;SDS011;2593;52.466;13.436;2022-09-17T15:43:42;12.57;;;5.13;;
5149;SDS011;2593;52.466;13.436;2022-09-17T15:46:19;17.87;;;7.80;;
5149;SDS011;2593;52.466;13.436;2022-09-17T15:48:48;14.03;;;6.60;;
5149;SDS011;2593;52.466;13.436;2022-09-17T15:51:47;7.03;;;3.17;;
5149;SDS011;2593;52.466;13.436;2022-09-17T15:54:06;4.40;;;1.63;;
5149;SDS011;2593;52.466;13.436;2022-09-17T15:56:55;6.50;;;1.73;;
5149;SDS011;2593;52.466;13.436;2022-09-17T15:59:27;4.40;;;1.50;;
5149;SDS011;2593;52.466;13.436;2022-09-17T16:01:56;3.40;;;1.50;;
5149;SDS011;2593;52.466;13.436;2022-09-17T16:04:25;3.53;;;2.70;;
5149;SDS011;2593;52.466;13.436;2022-09-17T16:12:02;40.47;;;15.50;;
5149;SDS011;2593;52.466;13.436;2022-09-17T16:14:27;18.03;;;6.13;;
5149;SDS011;2593;52.466;13.436;2022-09-17T16:16:53;17.23;;;7.53;;
5149;SDS011;2593;52.466;13.436;2022-09-17T16:19:20;4.10;;;2.60;;
5149;SDS011;2593;52.466;13.436;2022-09-17T16:21:46;3.20;;;1.63;;
5149;SDS011;2593;52.466;13.436;2022-09-17T16:24:11;8.43;;;4.90;;
5149;SDS011;2593;52.466;13.436;2022-09-17T16:26:37;40.50;;;17.53;;
5149;SDS011;2593;52.466;13.436;2022-09-17T16:29:04;45.00;;;17.37;;
5149;SDS011;2593;52.466;13.436;2022-09-17T16:31:32;34.90;;;14.20;;
5149;SDS011;2593;52.466;13.436;2022-09-17T16:33:58;15.77;;;6.67;;
5149;SDS011;2593;52.466;13.436;2022-09-17T16:36:24;4.20;;;2.20;;
5149;SDS011;2593;52.466;13.436;2022-09-17T16:38:51;3.53;;;1.83;;
5149;SDS011;2593;52.466;13.436;2022-09-17T16:41:16;20.20;;;7.50;;
5149;SDS011;2593;52.466;13.436;2022-09-17T16:43:42;20.37;;;7.60;;
5149;SDS011;2593;52.466;13.436;2022-09-17T16:46:08;15.20;;;5.00;;
5149;SDS011;2593;52.466;13.436;2022-09-17T16:48:35;17.23;;;5.37;;
5149;SDS011;2593;52.466;13.436;2022-09-17T16:51:08;25.70;;;9.10;;
5149;SDS011;2593;52.466;13.436;2022-09-17T16:53:34;17.43;;;8.00;;
5149;SDS011;2593;52.466;13.436;2022-09-17T16:56:00;10.83;;;5.30;;
5149;SDS011;2593;52.466;13.436;2022-09-17T16:58:30;9.63;;;5.23;;
5149;SDS011;2593;52.466;13.436;2022-09-17T17:00:56;10.63;;;5.47;;
5149;SDS011;2593;52.466;13.436;2022-09-17T17:03:22;12.57;;;6.47;;
5149;SDS011;2593;52.466;13.436;2022-09-17T17:05:47;22.90;;;9.23;;
5149;SDS011;2593;52.466;13.436;2022-09-17T17:08:13;19.70;;;8.60;;
5149;SDS011;2593;52.466;13.436;2022-09-17T17:10:38;41.53;;;14.90;;
5149;SDS011;2593;52.466;13.436;2022-09-17T17:13:04;30.07;;;10.47;;
5149;SDS011;2593;52.466;13.436;2022-09-17T17:15:30;49.13;;;18.33;;
5149;SDS011;2593;52.466;13.436;2022-09-17T17:17:55;34.73;;;12.70;;
5149;SDS011;2593;52.466;13.436;2022-09-17T17:20:21;24.10;;;10.30;;
5149;SDS011;2593;52.466;13.436;2022-09-17T17:22:47;14.80;;;5.37;;
5149;SDS011;2593;52.466;13.436;2022-09-17T17:25:15;8.00;;;3.20;;
5149;SDS011;2593;52.466;13.436;2022-09-17T17:27:41;32.33;;;11.27;;
5149;SDS011;2593;52.466;13.436;2022-09-17T17:30:08;22.90;;;11.90;;
5149;SDS011;2593;52.466;13.436;2022-09-17T17:32:40;32.50;;;12.70;;
5149;SDS011;2593;52.466;13.436;2022-09-17T17:35:06;20.23;;;8.60;;
5149;SDS011;2593;52.466;13.436;2022-09-17T17:37:32;6.60;;;3.70;;
5149;SDS011;2593;52.466;13.436;2022-09-17T17:39:58;15.03;;;6.70;;
5149;SDS011;2593;52.466;13.436;2022-09-17T17:42:24;20.03;;;10.00;;
5149;SDS011;2593;52.466;13.436;2022-09-17T17:44:49;17.40;;;6.70;;
5149;SDS011;2593;52.466;13.436;2022-09-17T17:47:15;11.30;;;3.63;;
5149;SDS011;2593;52.466;13.436;2022-09-17T17:49:40;1.43;;;0.80;;
5149;SDS011;2593;52.466;13.436;2022-09-17T17:52:08;5.83;;;1.47;;
5149;SDS011;2593;52.466;13.436;2022-09-17T17:54:33;8.10;;;4.03;;
5149;SDS011;2593;52.466;13.436;2022-09-17T17:56:59;11.57;;;4.90;;
5149;SDS011;2593;52.466;13.436;2022-09-17T17:59:25;5.47;;;1.97;;
5149;SDS011;2593;52.466;13.436;2022-09-17T18:01:51;7.30;;;2.10;;
5149;SDS011;2593;52.466;13.436;2022-09-17T18:04:16;8.50;;;3.70;;
5149;SDS011;2593;52.466;13.436;2022-09-17T18:06:42;13.57;;;4.90;;
5149;SDS011;2593;52.466;13.436;2022-09-17T18:09:07;8.83;;;3.33;;
5149;SDS011;2593;52.466;13.436;2022-09-17T18:11:33;12.47;;;3.20;;
5149;SDS011;2593;52.466;13.436;2022-09-17T18:13:59;5.23;;;2.40;;
5149;SDS011;2593;52.466;13.436;2022-09-17T18:16:26;4.03;;;2.10;;
5149;SDS011;2593;52.466;13.436;2022-09-17T18:18:53;6.23;;;2.30;;